Ophir, Oregon
Current Conditions -  °F | °C
As of 10:16 PM on Monday 20 Oct 2014 (Local Time) from KBOK Reporting Station
Haze Haze  
Wind Chill: 13°   Ceiling: 1700
Heat Index: 13°   Visibility: 6mi
Dew Point: 12°   Wind: 6mph
Humidity: 94%   Direction: NA
Pressure: 29.98"   Gusts: NA
Location:  42.56°N, 124.39°W
Report Text: KBOK 210516Z AUTO VRB05KT 6SM BR FEW007 BKN017 BKN035 13/12 A2998 RMK AO2
Loading
Personal Weather Stations






























Interactive Weather Map
Tropical Storm Tracking
New forecast layout! Learn more

10-Day Weather Forecast

Advertisements
Track Severe Weather on mobile